createdAt,value
2022-11-01T00:00:32.527Z,0.00
2022-11-01T00:01:32.609Z,0.00
2022-11-01T00:02:32.528Z,0.00
2022-11-01T00:03:32.454Z,0.00
2022-11-01T00:04:32.454Z,0.00
2022-11-01T00:05:32.406Z,0.00
2022-11-01T00:06:32.387Z,0.00
2022-11-01T00:07:32.357Z,0.00
2022-11-01T00:08:32.337Z,0.00
2022-11-01T00:09:32.309Z,0.00
2022-11-01T00:10:32.288Z,0.00
2022-11-01T00:11:32.274Z,0.00
2022-11-01T00:12:32.239Z,0.00
2022-11-01T00:13:32.214Z,0.00
2022-11-01T00:14:32.191Z,0.00
2022-11-01T00:15:32.166Z,0.00
2022-11-01T00:16:32.147Z,0.00
2022-11-01T00:17:32.117Z,0.00
2022-11-01T00:18:32.096Z,0.00
2022-11-01T00:19:32.072Z,0.00
2022-11-01T00:20:32.065Z,0.00
2022-11-01T00:21:32.025Z,0.00
2022-11-01T00:22:31.998Z,0.00
2022-11-01T00:23:31.973Z,0.00
2022-11-01T00:24:31.951Z,0.00
2022-11-01T00:25:31.924Z,0.00
2022-11-01T00:26:31.905Z,0.00
2022-11-01T00:27:31.881Z,0.00
2022-11-01T00:28:31.856Z,0.00
2022-11-01T00:29:31.830Z,0.00
2022-11-01T00:30:31.807Z,0.00
2022-11-01T00:31:31.780Z,0.00
2022-11-01T00:32:31.760Z,0.00
2022-11-01T00:33:31.731Z,0.00
2022-11-01T00:34:31.709Z,0.00
2022-11-01T00:35:31.685Z,0.00
2022-11-01T00:36:31.708Z,0.00
2022-11-01T00:37:31.637Z,0.00
2022-11-01T00:38:31.617Z,0.00
2022-11-01T00:39:31.658Z,0.00
2022-11-01T00:40:31.567Z,0.00
2022-11-01T00:41:31.543Z,0.00
2022-11-01T00:42:31.528Z,0.00
2022-11-01T00:43:31.492Z,0.00
2022-11-01T00:44:31.473Z,0.00
2022-11-01T00:45:31.447Z,0.00
2022-11-01T00:46:31.423Z,0.00
2022-11-01T00:47:31.399Z,0.00
2022-11-01T00:48:31.390Z,0.00
2022-11-01T00:49:31.350Z,0.00
2022-11-01T00:50:31.329Z,0.00
2022-11-01T00:51:31.303Z,0.00
2022-11-01T00:52:31.302Z,0.00
2022-11-01T00:53:31.255Z,0.00
2022-11-01T00:54:31.233Z,0.00
2022-11-01T00:55:31.206Z,0.00
2022-11-01T00:56:31.186Z,0.00
2022-11-01T00:57:31.157Z,0.00
2022-11-01T00:58:31.137Z,0.00
2022-11-01T00:59:31.109Z,0.00
2022-11-01T01:00:31.105Z,0.00
2022-11-01T01:01:31.222Z,0.00
2022-11-01T01:02:31.143Z,0.00
2022-11-01T01:03:31.015Z,0.00
2022-11-01T01:04:30.993Z,0.00
2022-11-01T01:05:30.968Z,0.00
2022-11-01T01:06:30.947Z,0.00
2022-11-01T01:07:30.919Z,0.00
2022-11-01T01:08:30.915Z,0.00
2022-11-01T01:09:30.872Z,0.00
2022-11-01T01:10:30.846Z,0.00
2022-11-01T01:11:30.822Z,0.00
2022-11-01T01:12:30.800Z,0.00
2022-11-01T01:13:30.773Z,0.00
2022-11-01T01:14:32.450Z,0.00
2022-11-01T01:15:30.739Z,0.00
2022-11-01T01:16:30.788Z,0.00
2022-11-01T01:17:33.648Z,0.00
2022-11-01T01:18:30.656Z,0.00
2022-11-01T01:19:30.631Z,0.00
2022-11-01T01:20:30.611Z,0.00
2022-11-01T01:21:30.583Z,0.00
2022-11-01T01:22:30.561Z,0.00
2022-11-01T01:23:30.535Z,0.00
2022-11-01T01:24:30.534Z,0.00
2022-11-01T01:25:30.485Z,0.00
2022-11-01T01:26:30.463Z,0.00
2022-11-01T01:27:30.444Z,0.00
2022-11-01T01:28:30.417Z,0.00
2022-11-01T01:29:30.391Z,0.00
2022-11-01T01:30:30.369Z,0.00
2022-11-01T01:31:30.342Z,0.00
2022-11-01T01:32:30.322Z,0.00
2022-11-01T01:33:30.298Z,0.00
2022-11-01T01:34:30.274Z,0.00
2022-11-01T01:35:30.246Z,0.00
2022-11-01T01:36:30.226Z,0.00
2022-11-01T01:37:30.201Z,0.00
2022-11-01T01:38:30.178Z,0.00
2022-11-01T01:39:30.154Z,0.00
2022-11-01T01:40:30.149Z,0.00
2022-11-01T01:41:30.106Z,0.00
2022-11-01T01:42:30.082Z,0.00
2022-11-01T01:43:30.058Z,0.00
2022-11-01T01:44:30.035Z,0.00
2022-11-01T01:45:30.010Z,0.00
2022-11-01T01:46:29.987Z,0.00
2022-11-01T01:47:29.962Z,0.00
2022-11-01T01:48:29.942Z,0.00
2022-11-01T01:49:29.916Z,0.00
2022-11-01T01:50:29.894Z,0.00
2022-11-01T01:51:29.875Z,0.00
2022-11-01T01:52:29.843Z,0.00
2022-11-01T01:53:29.820Z,0.00
2022-11-01T01:54:29.794Z,0.00
2022-11-01T01:55:29.771Z,0.00
2022-11-01T01:56:29.775Z,0.00
2022-11-01T01:57:29.726Z,0.00
2022-11-01T01:58:29.702Z,0.00
2022-11-01T01:59:29.678Z,0.00
2022-11-01T02:00:29.653Z,0.00
2022-11-01T02:01:29.815Z,0.00
2022-11-01T02:02:29.604Z,0.00
2022-11-01T02:03:29.583Z,0.00
2022-11-01T02:04:29.557Z,0.00
2022-11-01T02:05:29.534Z,0.00
2022-11-01T02:06:29.517Z,0.00
2022-11-01T02:07:29.492Z,0.00
2022-11-01T02:08:29.464Z,0.00
2022-11-01T02:09:31.656Z,0.00
2022-11-01T02:10:29.414Z,0.00
2022-11-01T02:11:29.391Z,0.00
2022-11-01T02:12:29.386Z,0.00
2022-11-01T02:13:29.342Z,0.00
2022-11-01T02:14:29.318Z,0.00
2022-11-01T02:15:29.298Z,0.00
2022-11-01T02:16:29.269Z,0.00
2022-11-01T02:17:29.249Z,0.00
2022-11-01T02:18:29.223Z,0.00
2022-11-01T02:19:29.200Z,0.00
2022-11-01T02:20:29.178Z,0.00
2022-11-01T02:21:29.152Z,0.00
2022-11-01T02:22:29.128Z,0.00
2022-11-01T02:23:29.107Z,0.00
2022-11-01T02:24:29.080Z,0.00
2022-11-01T02:25:29.059Z,0.00
2022-11-01T02:26:29.033Z,0.00
2022-11-01T02:27:29.017Z,0.00
2022-11-01T02:28:29.003Z,0.00
2022-11-01T02:29:28.964Z,0.00
2022-11-01T02:30:28.941Z,0.00
2022-11-01T02:31:28.920Z,0.00
2022-11-01T02:32:28.889Z,0.00
2022-11-01T02:33:28.870Z,0.00
2022-11-01T02:34:28.851Z,0.00
2022-11-01T02:35:28.819Z,0.00
2022-11-01T02:36:28.795Z,0.00
2022-11-01T02:37:28.771Z,0.00
2022-11-01T02:38:28.747Z,0.00
2022-11-01T02:39:28.724Z,0.00
2022-11-01T02:40:28.706Z,0.00
2022-11-01T02:41:28.684Z,0.00
2022-11-01T02:42:28.651Z,0.00
2022-11-01T02:43:28.629Z,0.00
2022-11-01T02:44:28.625Z,0.00
2022-11-01T02:45:28.581Z,0.00
2022-11-01T02:46:28.561Z,0.00
2022-11-01T02:47:28.532Z,0.00
2022-11-01T02:48:28.509Z,0.00
2022-11-01T02:49:28.486Z,0.00
2022-11-01T02:50:28.462Z,0.00
2022-11-01T02:51:28.439Z,0.00
2022-11-01T02:52:28.415Z,0.00
2022-11-01T02:53:28.390Z,0.00
2022-11-01T02:54:28.366Z,0.00
2022-11-01T02:55:28.454Z,0.00
2022-11-01T02:56:28.322Z,0.00
2022-11-01T02:57:28.300Z,0.00
2022-11-01T02:58:28.271Z,0.00
2022-11-01T02:59:28.254Z,0.00
2022-11-01T03:00:28.243Z,0.00
2022-11-01T03:01:28.361Z,0.00
2022-11-01T03:02:28.180Z,0.00
2022-11-01T03:03:28.156Z,0.00
2022-11-01T03:04:28.131Z,0.00
2022-11-01T03:05:28.109Z,0.00
2022-11-01T03:06:28.086Z,0.00
2022-11-01T03:07:28.060Z,0.00
2022-11-01T03:08:28.037Z,0.00
2022-11-01T03:09:28.013Z,0.00
2022-11-01T03:10:27.988Z,0.00
2022-11-01T03:11:27.967Z,0.00
2022-11-01T03:13:27.922Z,0.00
2022-11-01T03:14:27.897Z,0.00
2022-11-01T03:15:27.875Z,0.00
2022-11-01T03:16:27.869Z,0.00
2022-11-01T03:17:27.828Z,0.00
2022-11-01T03:18:27.802Z,0.00
2022-11-01T03:19:27.779Z,0.00
2022-11-01T03:20:27.754Z,0.00
2022-11-01T03:21:27.734Z,0.00
2022-11-01T03:22:27.710Z,0.00
2022-11-01T03:23:27.688Z,0.00
2022-11-01T03:24:27.665Z,0.00
2022-11-01T03:25:27.640Z,0.00
2022-11-01T03:26:27.616Z,0.00
2022-11-01T03:27:27.592Z,0.00
2022-11-01T03:28:27.568Z,0.00
2022-11-01T03:29:27.545Z,0.00
2022-11-01T03:30:27.522Z,0.00
2022-11-01T03:31:27.514Z,0.00
2022-11-01T03:32:27.492Z,0.00
2022-11-01T03:33:27.451Z,0.00
2022-11-01T03:34:27.429Z,0.00
2022-11-01T03:35:27.408Z,0.00
2022-11-01T03:36:27.382Z,0.00
2022-11-01T03:37:27.358Z,0.00
2022-11-01T03:38:27.335Z,0.00
2022-11-01T03:39:27.316Z,0.00
2022-11-01T03:40:27.294Z,0.00
2022-11-01T03:41:27.270Z,0.00
2022-11-01T03:42:27.244Z,0.00
2022-11-01T03:43:27.221Z,0.00
2022-11-01T03:44:27.198Z,0.00
2022-11-01T03:45:27.174Z,0.00
2022-11-01T03:46:27.150Z,0.00
2022-11-01T03:47:27.128Z,0.00
2022-11-01T03:48:27.121Z,0.00
2022-11-01T03:49:27.085Z,0.00
2022-11-01T03:50:27.055Z,0.00
2022-11-01T03:51:27.032Z,0.00
2022-11-01T03:52:27.008Z,0.00
2022-11-01T03:53:26.989Z,0.00
2022-11-01T03:54:26.961Z,0.00
2022-11-01T03:55:26.944Z,0.00
2022-11-01T03:56:26.919Z,0.00
2022-11-01T03:57:26.895Z,0.00
2022-11-01T03:58:26.868Z,0.00
2022-11-01T03:59:26.850Z,0.00
2022-11-01T04:00:26.823Z,0.00
2022-11-01T04:01:26.930Z,0.00
2022-11-01T04:02:26.776Z,0.00
2022-11-01T04:03:26.755Z,0.00
2022-11-01T04:04:26.745Z,0.00
2022-11-01T04:05:26.707Z,0.00
2022-11-01T04:06:26.683Z,0.00
2022-11-01T04:07:26.661Z,0.00
2022-11-01T04:08:26.637Z,0.00
2022-11-01T04:09:26.616Z,0.00
2022-11-01T04:10:26.592Z,0.00
2022-11-01T04:11:26.567Z,0.00
2022-11-01T04:12:26.547Z,0.00
2022-11-01T04:13:26.520Z,0.00
2022-11-01T04:14:26.869Z,0.00
2022-11-01T04:15:26.476Z,0.00
2022-11-01T04:16:26.454Z,0.00
2022-11-01T04:17:26.430Z,0.00
2022-11-01T04:18:26.475Z,0.00
2022-11-01T04:19:26.383Z,0.00
2022-11-01T04:20:26.377Z,0.00
2022-11-01T04:21:26.345Z,0.00
2022-11-01T04:22:26.309Z,0.00
2022-11-01T04:23:26.289Z,0.00
2022-11-01T04:24:26.263Z,0.00
2022-11-01T04:25:26.241Z,0.00
2022-11-01T04:26:26.216Z,0.00
2022-11-01T04:27:26.197Z,0.00
2022-11-01T04:28:26.171Z,0.00
2022-11-01T04:29:26.148Z,0.00
2022-11-01T04:30:26.126Z,0.00
2022-11-01T04:31:26.101Z,0.00
2022-11-01T04:32:26.077Z,0.00
2022-11-01T04:33:26.056Z,0.00
2022-11-01T04:34:26.032Z,0.00
2022-11-01T04:35:26.007Z,0.00
2022-11-01T04:36:26.006Z,0.00
2022-11-01T04:37:25.966Z,0.00
2022-11-01T04:38:25.939Z,0.00
2022-11-01T04:39:25.916Z,0.00
2022-11-01T04:40:25.891Z,0.00
2022-11-01T04:41:25.869Z,0.00
2022-11-01T04:42:25.844Z,0.00
2022-11-01T04:43:25.824Z,0.00
2022-11-01T04:44:25.797Z,0.00
2022-11-01T04:45:25.775Z,0.00
2022-11-01T04:46:25.752Z,0.00
2022-11-01T04:47:25.736Z,0.00
2022-11-01T04:48:25.705Z,0.00
2022-11-01T04:49:25.686Z,0.00
2022-11-01T04:50:25.660Z,0.00
2022-11-01T04:51:25.707Z,0.00
2022-11-01T04:52:25.632Z,0.00
2022-11-01T04:53:25.591Z,0.00
2022-11-01T04:54:25.567Z,0.00
2022-11-01T04:55:25.545Z,0.00
2022-11-01T04:56:25.520Z,0.00
2022-11-01T04:57:25.502Z,0.00
2022-11-01T04:58:25.474Z,0.00
2022-11-01T04:59:25.455Z,0.00
2022-11-01T05:00:25.433Z,0.00
2022-11-01T05:01:25.535Z,0.00
2022-11-01T05:02:25.381Z,0.00
2022-11-01T05:03:25.363Z,0.00
2022-11-01T05:04:25.333Z,0.00
2022-11-01T05:05:25.313Z,0.00
2022-11-01T05:06:25.288Z,0.00
2022-11-01T05:07:25.266Z,0.00
2022-11-01T05:08:25.260Z,0.00
2022-11-01T05:09:25.221Z,0.00
2022-11-01T05:10:25.195Z,0.00
2022-11-01T05:11:25.176Z,0.00
2022-11-01T05:12:25.148Z,0.00
2022-11-01T05:13:25.125Z,0.00
2022-11-01T05:14:25.102Z,0.00
2022-11-01T05:15:25.080Z,0.00
2022-11-01T05:16:25.056Z,0.00
2022-11-01T05:17:25.036Z,0.00
2022-11-01T05:18:25.011Z,0.00
2022-11-01T05:19:24.988Z,0.00
2022-11-01T05:20:24.965Z,0.00
2022-11-01T05:21:24.941Z,0.00
2022-11-01T05:22:24.915Z,0.00
2022-11-01T05:23:24.898Z,0.00
2022-11-01T05:24:24.886Z,0.00
2022-11-01T05:25:24.850Z,0.00
2022-11-01T05:26:24.823Z,0.00
2022-11-01T05:27:24.803Z,0.00
2022-11-01T05:28:24.778Z,0.00
2022-11-01T05:29:32.635Z,0.00
2022-11-01T05:30:24.732Z,0.00
2022-11-01T05:31:24.718Z,0.00
2022-11-01T05:32:24.688Z,0.00
2022-11-01T05:33:24.671Z,0.00
2022-11-01T05:34:24.640Z,0.00
2022-11-01T05:35:24.617Z,0.00
2022-11-01T05:36:24.594Z,0.00
2022-11-01T05:37:28.089Z,0.00
2022-11-01T05:38:24.544Z,0.00
2022-11-01T05:39:24.524Z,0.00
2022-11-01T05:40:24.515Z,0.00
2022-11-01T05:41:24.477Z,0.00
2022-11-01T05:42:24.453Z,0.00
2022-11-01T05:43:24.440Z,0.00
2022-11-01T05:44:24.408Z,0.00
2022-11-01T05:45:24.384Z,0.00
2022-11-01T05:46:24.361Z,0.00
2022-11-01T05:47:24.339Z,0.00
2022-11-01T05:48:24.314Z,0.00
2022-11-01T05:49:24.293Z,0.00
2022-11-01T05:50:24.271Z,0.00
2022-11-01T05:51:24.246Z,0.00
2022-11-01T05:52:24.222Z,0.00
2022-11-01T05:53:24.200Z,0.00
2022-11-01T05:54:24.178Z,0.00
2022-11-01T05:55:24.155Z,0.00
2022-11-01T05:56:24.149Z,0.00
2022-11-01T05:57:24.107Z,0.00
2022-11-01T05:58:27.960Z,0.00
2022-11-01T05:59:24.064Z,0.00
2022-11-01T06:00:24.043Z,0.00
2022-11-01T06:01:24.083Z,0.00
2022-11-01T06:02:24.074Z,0.00
2022-11-01T06:03:23.974Z,0.00
2022-11-01T06:04:23.948Z,0.00
2022-11-01T06:05:23.923Z,0.00
2022-11-01T06:06:23.901Z,0.00
2022-11-01T06:07:23.878Z,0.00
2022-11-01T06:08:23.859Z,0.00
2022-11-01T06:09:23.830Z,0.00
2022-11-01T06:10:23.814Z,0.00
2022-11-01T06:11:23.786Z,0.00
2022-11-01T06:12:23.784Z,0.00
2022-11-01T06:13:23.740Z,0.00
2022-11-01T06:14:23.766Z,0.00
2022-11-01T06:15:23.694Z,0.00
2022-11-01T06:16:23.671Z,0.00
2022-11-01T06:17:23.648Z,0.00
2022-11-01T06:18:23.629Z,0.00
2022-11-01T06:19:23.604Z,0.00
2022-11-01T06:20:23.581Z,0.00
2022-11-01T06:21:27.605Z,0.00
2022-11-01T06:22:23.539Z,0.00
2022-11-01T06:23:23.510Z,0.00
2022-11-01T06:24:23.488Z,0.00
2022-11-01T06:25:23.488Z,0.00
2022-11-01T06:26:23.525Z,0.00
2022-11-01T06:27:23.419Z,0.00
2022-11-01T06:28:23.415Z,0.00
2022-11-01T06:29:23.373Z,0.00
2022-11-01T06:30:23.359Z,0.00
2022-11-01T06:31:23.327Z,0.00
2022-11-01T06:32:23.307Z,0.00
2022-11-01T06:33:23.283Z,0.00
2022-11-01T06:34:23.267Z,0.00
2022-11-01T06:35:23.237Z,0.00
2022-11-01T06:36:23.218Z,0.00
2022-11-01T06:37:23.192Z,0.00
2022-11-01T06:38:23.171Z,0.00
2022-11-01T06:39:23.145Z,0.00
2022-11-01T06:40:23.124Z,0.00
2022-11-01T06:41:23.100Z,0.00
2022-11-01T06:42:23.079Z,0.00
2022-11-01T06:43:23.055Z,0.00
2022-11-01T06:44:23.051Z,0.00
2022-11-01T06:45:23.009Z,0.00
2022-11-01T06:46:22.992Z,0.00
2022-11-01T06:47:22.969Z,0.00
2022-11-01T06:48:22.951Z,0.00
2022-11-01T06:49:22.928Z,0.00
2022-11-01T06:50:23.018Z,0.00
2022-11-01T06:51:22.877Z,0.00
2022-11-01T06:52:22.851Z,0.00
2022-11-01T06:53:22.827Z,0.00
2022-11-01T06:54:22.811Z,0.00
2022-11-01T06:55:22.783Z,0.00
2022-11-01T06:56:22.760Z,0.00
2022-11-01T06:57:22.736Z,0.00
2022-11-01T06:58:22.718Z,0.00
2022-11-01T06:59:22.692Z,0.00
2022-11-01T07:00:22.689Z,0.00
2022-11-01T07:01:22.752Z,0.00
2022-11-01T07:02:28.496Z,0.00
2022-11-01T07:03:22.600Z,0.00
2022-11-01T07:04:22.580Z,0.00
2022-11-01T07:05:22.555Z,0.00
2022-11-01T07:06:22.533Z,0.00
2022-11-01T07:07:22.508Z,0.00
2022-11-01T07:08:22.489Z,0.00
2022-11-01T07:09:22.464Z,0.00
2022-11-01T07:10:22.442Z,0.00
2022-11-01T07:11:24.386Z,0.00
2022-11-01T07:12:22.397Z,0.00
2022-11-01T07:13:22.375Z,0.00
2022-11-01T07:14:22.371Z,0.00
2022-11-01T07:15:22.328Z,0.00
2022-11-01T07:16:22.320Z,0.00
2022-11-01T07:17:22.278Z,0.00
2022-11-01T07:18:22.258Z,0.00
2022-11-01T07:19:22.232Z,0.00
2022-11-01T07:20:22.214Z,0.00
2022-11-01T07:21:22.188Z,0.00
2022-11-01T07:22:22.169Z,0.00
2022-11-01T07:23:22.138Z,0.00
2022-11-01T07:24:22.119Z,0.00
2022-11-01T07:25:22.129Z,0.00
2022-11-01T07:26:22.072Z,0.00
2022-11-01T07:27:22.048Z,0.00
2022-11-01T07:28:22.028Z,0.00
2022-11-01T07:29:22.002Z,0.00
2022-11-01T07:30:21.981Z,0.00
2022-11-01T07:31:21.956Z,0.00
2022-11-01T07:32:21.954Z,0.00
2022-11-01T07:33:21.910Z,0.00
2022-11-01T07:34:21.890Z,0.00
2022-11-01T07:35:21.865Z,0.00
2022-11-01T07:36:21.859Z,0.00
2022-11-01T07:37:21.840Z,0.00
2022-11-01T07:38:21.796Z,0.00
2022-11-01T07:39:21.770Z,0.00
2022-11-01T07:40:21.750Z,0.00
2022-11-01T07:41:21.726Z,0.00
2022-11-01T07:42:21.701Z,0.00
2022-11-01T07:43:21.676Z,0.00
2022-11-01T07:44:21.656Z,0.00
2022-11-01T07:45:21.634Z,0.00
2022-11-01T07:46:21.610Z,0.00
2022-11-01T07:47:21.584Z,0.00
2022-11-01T07:48:21.582Z,0.00
2022-11-01T07:49:21.537Z,0.00
2022-11-01T07:50:21.514Z,0.00
2022-11-01T07:51:21.492Z,0.00
2022-11-01T07:52:21.468Z,0.00
2022-11-01T07:53:21.443Z,0.00
2022-11-01T07:54:21.426Z,0.00
2022-11-01T07:55:21.398Z,0.00
2022-11-01T07:56:21.377Z,0.00
2022-11-01T07:57:21.351Z,0.00
2022-11-01T07:58:21.333Z,0.00
2022-11-01T07:59:21.307Z,0.00
2022-11-01T08:00:21.315Z,0.00
2022-11-01T08:01:21.400Z,0.00
2022-11-01T08:02:21.410Z,0.00
2022-11-01T08:03:21.212Z,5.63
2022-11-01T08:04:21.209Z,5.63
2022-11-01T08:05:21.166Z,5.63
2022-11-01T08:07:21.118Z,5.63
2022-11-01T08:08:21.099Z,5.63
2022-11-01T08:09:21.174Z,5.63
2022-11-01T08:10:21.051Z,5.63
2022-11-01T08:11:21.028Z,5.63
2022-11-01T08:12:21.004Z,5.63
2022-11-01T08:13:20.981Z,5.63
2022-11-01T08:14:20.959Z,5.63
2022-11-01T08:15:20.933Z,5.63
2022-11-01T08:16:20.912Z,5.63
2022-11-01T08:17:20.885Z,5.63
2022-11-01T08:18:20.866Z,5.63
2022-11-01T08:19:20.924Z,5.63
2022-11-01T08:20:20.836Z,5.63
2022-11-01T08:21:20.791Z,5.63
2022-11-01T08:22:20.772Z,5.63
2022-11-01T08:23:20.745Z,5.63
2022-11-01T08:24:20.725Z,5.63
2022-11-01T08:25:20.698Z,5.63
2022-11-01T08:26:20.677Z,5.63
2022-11-01T08:27:20.658Z,5.63
2022-11-01T08:28:20.637Z,5.63
2022-11-01T08:29:20.607Z,5.63
2022-11-01T08:30:20.587Z,5.63
2022-11-01T08:31:20.556Z,5.63
2022-11-01T08:32:20.540Z,5.63
2022-11-01T08:33:20.512Z,5.63
2022-11-01T08:34:20.489Z,5.63
2022-11-01T08:35:20.462Z,5.63
2022-11-01T08:36:20.459Z,5.63
2022-11-01T08:37:20.417Z,5.63
2022-11-01T08:38:20.399Z,5.63
2022-11-01T08:39:20.370Z,5.63
2022-11-01T08:40:20.350Z,5.63
2022-11-01T08:41:20.323Z,5.63
2022-11-01T08:42:20.304Z,5.63
2022-11-01T08:43:20.279Z,5.63
2022-11-01T08:44:20.258Z,5.63
2022-11-01T08:45:20.231Z,5.63
2022-11-01T08:46:20.209Z,5.63
2022-11-01T08:47:20.182Z,5.63
2022-11-01T08:48:20.161Z,5.63
2022-11-01T08:49:20.134Z,5.63
2022-11-01T08:50:20.114Z,5.63
2022-11-01T08:51:20.093Z,5.63
2022-11-01T08:52:20.116Z,5.63
2022-11-01T08:53:20.041Z,5.63
2022-11-01T08:54:20.027Z,5.63
2022-11-01T08:55:19.996Z,5.63
2022-11-01T08:56:19.981Z,5.63
2022-11-01T08:57:19.950Z,5.63
2022-11-01T08:58:19.926Z,5.63
2022-11-01T08:59:19.902Z,5.63
2022-11-01T09:00:19.882Z,5.63
2022-11-01T09:01:19.972Z,5.63
2022-11-01T09:02:19.973Z,11.25
2022-11-01T09:03:19.808Z,11.25
2022-11-01T09:04:19.784Z,11.25
2022-11-01T09:05:19.760Z,11.25
2022-11-01T09:06:19.739Z,11.25
2022-11-01T09:07:19.713Z,11.25
2022-11-01T09:08:19.710Z,11.25
2022-11-01T09:09:19.667Z,11.25
2022-11-01T09:10:19.643Z,11.25
2022-11-01T09:11:19.618Z,11.25
2022-11-01T09:12:24.417Z,11.25
2022-11-01T09:13:19.573Z,16.88
2022-11-01T09:14:19.552Z,16.88
2022-11-01T09:15:19.529Z,22.50
2022-11-01T09:16:19.510Z,28.13
2022-11-01T09:17:19.478Z,33.75
2022-11-01T09:18:19.457Z,39.38
2022-11-01T09:19:19.435Z,45.00
2022-11-01T09:20:19.411Z,45.00
2022-11-01T09:21:19.387Z,45.00
2022-11-01T09:22:19.436Z,50.63
2022-11-01T09:23:19.341Z,50.63
2022-11-01T09:24:19.336Z,50.63
2022-11-01T09:25:19.294Z,50.63
2022-11-01T09:26:19.274Z,56.25
2022-11-01T09:27:19.248Z,56.25
2022-11-01T09:28:19.225Z,61.88
2022-11-01T09:29:19.621Z,61.88
2022-11-01T09:30:19.181Z,67.50
2022-11-01T09:31:21.227Z,73.13
2022-11-01T09:32:19.136Z,73.13
2022-11-01T09:33:19.107Z,73.13
2022-11-01T09:34:19.089Z,78.75
2022-11-01T09:35:19.066Z,78.75
2022-11-01T09:36:19.045Z,84.38
2022-11-01T09:37:19.028Z,84.38
2022-11-01T09:38:19.000Z,95.63
2022-11-01T09:39:18.977Z,95.63
2022-11-01T09:40:18.971Z,101.25
2022-11-01T09:41:18.929Z,106.88
2022-11-01T09:42:18.910Z,112.50
2022-11-01T09:43:18.887Z,118.13
2022-11-01T09:44:18.864Z,123.75
2022-11-01T09:45:18.842Z,123.75
2022-11-01T09:46:18.850Z,129.38
2022-11-01T09:47:18.797Z,135.00
2022-11-01T09:48:18.778Z,140.63
2022-11-01T09:49:18.754Z,146.25
2022-11-01T09:50:18.734Z,146.25
2022-11-01T09:51:18.709Z,151.88
2022-11-01T09:52:18.696Z,157.50
2022-11-01T09:53:18.669Z,157.50
2022-11-01T09:54:18.643Z,163.13
2022-11-01T09:55:18.628Z,168.75
2022-11-01T09:56:18.621Z,180.00
2022-11-01T09:57:18.581Z,185.63
2022-11-01T09:58:18.640Z,185.63
2022-11-01T09:59:18.539Z,191.25
2022-11-01T10:00:19.179Z,202.50
2022-11-01T10:01:18.585Z,208.13
2022-11-01T10:02:18.530Z,213.75
2022-11-01T10:03:18.454Z,219.38
2022-11-01T10:04:18.434Z,225.00
2022-11-01T10:05:19.056Z,230.63
2022-11-01T10:06:18.392Z,236.25
2022-11-01T10:07:18.368Z,247.50
2022-11-01T10:08:18.475Z,253.13
2022-11-01T10:09:18.324Z,258.75
2022-11-01T10:10:18.306Z,270.00
2022-11-01T10:11:18.286Z,275.63
2022-11-01T10:12:18.289Z,286.88
2022-11-01T10:13:18.245Z,303.75
2022-11-01T10:14:18.228Z,309.38
2022-11-01T10:15:18.201Z,326.25
2022-11-01T10:16:18.186Z,343.13
2022-11-01T10:17:18.159Z,365.63
2022-11-01T10:18:18.141Z,405.00
2022-11-01T10:19:18.119Z,478.13
2022-11-01T10:20:18.103Z,556.88
2022-11-01T10:21:18.077Z,618.75
2022-11-01T10:22:18.055Z,669.38
2022-11-01T10:23:18.041Z,725.63
2022-11-01T10:24:18.015Z,731.25
2022-11-01T10:25:17.998Z,742.50
2022-11-01T10:26:17.975Z,770.63
2022-11-01T10:27:17.957Z,793.13
2022-11-01T10:28:17.954Z,826.88
2022-11-01T10:29:17.913Z,838.13
2022-11-01T10:30:17.894Z,860.63
2022-11-01T10:31:17.876Z,888.75
2022-11-01T10:32:17.856Z,871.88
2022-11-01T10:33:17.834Z,894.38
2022-11-01T10:34:17.814Z,928.13
2022-11-01T10:35:17.794Z,984.38
2022-11-01T10:36:17.774Z,1018.13
2022-11-01T10:37:17.754Z,1029.38
2022-11-01T10:38:35.142Z,1018.13
2022-11-01T10:40:17.694Z,1006.88
2022-11-01T10:41:17.676Z,967.50
2022-11-01T10:42:17.663Z,956.25
2022-11-01T10:43:17.637Z,945.00
2022-11-01T10:44:17.633Z,911.25
2022-11-01T10:45:17.599Z,905.63
2022-11-01T10:46:17.577Z,691.88
2022-11-01T10:47:17.557Z,168.75
2022-11-01T10:48:17.537Z,33.75
2022-11-01T10:49:17.520Z,28.13
2022-11-01T10:50:17.500Z,28.13
2022-11-01T10:51:17.479Z,28.13
2022-11-01T10:52:17.459Z,28.13
2022-11-01T10:53:17.461Z,28.13
2022-11-01T10:54:17.418Z,22.50
2022-11-01T10:55:17.400Z,22.50
2022-11-01T10:56:19.884Z,22.50
2022-11-01T10:57:17.362Z,22.50
2022-11-01T10:58:17.345Z,22.50
2022-11-01T10:59:17.457Z,22.50
2022-11-01T11:00:17.439Z,22.50
2022-11-01T11:01:17.468Z,16.88
2022-11-01T11:02:17.461Z,16.88
2022-11-01T11:03:17.248Z,16.88
2022-11-01T11:04:17.351Z,16.88
2022-11-01T11:05:17.293Z,16.88
2022-11-01T11:06:17.177Z,16.88
2022-11-01T11:07:19.964Z,16.88
2022-11-01T11:08:17.139Z,16.88
2022-11-01T11:09:17.122Z,16.88
2022-11-01T11:10:19.610Z,11.25
2022-11-01T11:11:17.078Z,11.25
2022-11-01T11:12:17.054Z,11.25
2022-11-01T11:13:17.050Z,11.25
2022-11-01T11:14:17.012Z,11.25
2022-11-01T11:15:17.011Z,11.25
2022-11-01T11:16:17.031Z,11.25
2022-11-01T11:17:16.952Z,11.25
2022-11-01T11:18:16.928Z,11.25
2022-11-01T11:19:16.952Z,11.25
2022-11-01T11:20:16.991Z,11.25
2022-11-01T11:21:16.865Z,11.25
2022-11-01T11:22:16.845Z,11.25
2022-11-01T11:23:16.839Z,11.25
2022-11-01T11:24:16.802Z,11.25
2022-11-01T11:25:16.784Z,11.25
2022-11-01T11:26:16.882Z,11.25
2022-11-01T11:27:16.741Z,11.25
2022-11-01T11:28:16.739Z,11.25
2022-11-01T11:29:16.701Z,11.25
2022-11-01T11:30:16.756Z,11.25
2022-11-01T11:31:16.657Z,11.25
2022-11-01T11:32:16.652Z,11.25
2022-11-01T11:33:16.614Z,11.25
2022-11-01T11:34:16.592Z,11.25
2022-11-01T11:35:16.580Z,11.25
2022-11-01T11:36:16.563Z,11.25
2022-11-01T11:37:16.529Z,11.25
2022-11-01T11:38:16.505Z,11.25
2022-11-01T11:39:16.487Z,11.25
2022-11-01T11:40:16.554Z,11.25
2022-11-01T11:41:16.445Z,11.25
2022-11-01T11:42:16.417Z,11.25
2022-11-01T11:43:16.404Z,11.25
2022-11-01T11:44:16.375Z,11.25
2022-11-01T11:45:16.353Z,11.25
2022-11-01T11:46:16.330Z,11.25
2022-11-01T11:47:16.312Z,11.25
2022-11-01T11:48:16.305Z,11.25
2022-11-01T11:49:16.270Z,11.25
2022-11-01T11:50:16.306Z,11.25
2022-11-01T11:51:16.223Z,11.25
2022-11-01T11:52:16.201Z,11.25
2022-11-01T11:53:16.179Z,11.25
2022-11-01T11:54:16.158Z,11.25
2022-11-01T11:55:16.139Z,11.25
2022-11-01T11:56:16.118Z,11.25
2022-11-01T11:57:16.093Z,11.25
2022-11-01T11:58:16.072Z,11.25
2022-11-01T11:59:16.051Z,11.25
2022-11-01T12:00:16.109Z,11.25
2022-11-01T12:01:16.062Z,11.25
2022-11-01T12:02:16.300Z,11.25
2022-11-01T12:03:16.029Z,11.25
2022-11-01T12:04:15.968Z,11.25
2022-11-01T12:05:15.920Z,5.63
2022-11-01T12:06:15.898Z,11.25
2022-11-01T12:07:15.879Z,11.25
2022-11-01T12:08:15.852Z,11.25
2022-11-01T12:09:19.347Z,11.25
2022-11-01T12:10:15.810Z,11.25
2022-11-01T12:11:15.804Z,11.25
2022-11-01T12:12:15.768Z,11.25
2022-11-01T12:13:15.745Z,11.25
2022-11-01T12:14:15.725Z,11.25
2022-11-01T12:15:15.703Z,11.25
2022-11-01T12:16:15.719Z,11.25
2022-11-01T12:17:15.661Z,11.25
2022-11-01T12:18:16.249Z,11.25
2022-11-01T12:19:15.614Z,11.25
2022-11-01T12:20:15.615Z,11.25
2022-11-01T12:21:15.569Z,11.25
2022-11-01T12:22:15.545Z,11.25
2022-11-01T12:23:15.598Z,11.25
2022-11-01T12:24:15.500Z,11.25
2022-11-01T12:25:15.481Z,11.25
2022-11-01T12:26:16.597Z,11.25
2022-11-01T12:27:15.440Z,11.25
2022-11-01T12:28:15.412Z,11.25
2022-11-01T12:29:15.391Z,11.25
2022-11-01T12:30:15.368Z,5.63
2022-11-01T12:31:15.352Z,5.63
2022-11-01T12:32:15.324Z,5.63
2022-11-01T12:34:15.280Z,5.63
2022-11-01T12:35:15.264Z,5.63
2022-11-01T12:36:15.293Z,5.63
2022-11-01T12:37:15.213Z,5.63
2022-11-01T12:38:15.189Z,5.63
2022-11-01T12:39:15.167Z,5.63
2022-11-01T12:40:15.148Z,5.63
2022-11-01T12:41:15.123Z,5.63
2022-11-01T12:42:15.099Z,5.63
2022-11-01T12:43:15.079Z,5.63
2022-11-01T12:44:15.062Z,5.63
2022-11-01T12:45:15.035Z,5.63
2022-11-01T12:46:15.014Z,5.63
2022-11-01T12:47:14.990Z,5.63
2022-11-01T12:48:14.968Z,5.63
2022-11-01T12:49:14.953Z,11.25
2022-11-01T12:50:14.922Z,11.25
2022-11-01T12:51:14.906Z,11.25
2022-11-01T12:52:14.897Z,16.88
2022-11-01T12:53:14.855Z,16.88
2022-11-01T12:54:14.833Z,16.88
2022-11-01T12:55:17.966Z,11.25
2022-11-01T12:56:14.789Z,11.25
2022-11-01T12:57:14.857Z,11.25
2022-11-01T12:58:15.908Z,11.25
2022-11-01T12:59:14.725Z,16.88
2022-11-01T13:00:14.700Z,16.88
2022-11-01T13:01:14.800Z,16.88
2022-11-01T13:02:14.718Z,16.88
2022-11-01T13:03:14.634Z,16.88
2022-11-01T13:04:14.697Z,11.25
2022-11-01T13:05:14.593Z,11.25
2022-11-01T13:06:14.567Z,11.25
2022-11-01T13:07:14.548Z,11.25
2022-11-01T13:08:14.542Z,5.63
2022-11-01T13:09:14.503Z,5.63
2022-11-01T13:10:14.480Z,5.63
2022-11-01T13:11:14.465Z,5.63
2022-11-01T13:12:14.568Z,5.63